createdAt,value
2023-04-09T00:00:17.566Z,36.70
2023-04-09T00:02:44.221Z,36.78
2023-04-09T00:05:10.908Z,35.25
2023-04-09T00:07:37.518Z,36.95
2023-04-09T00:10:04.347Z,35.15
2023-04-09T00:12:31.347Z,35.22
2023-04-09T00:14:57.977Z,34.65
2023-04-09T00:17:24.860Z,35.00
2023-04-09T00:19:51.630Z,34.13
2023-04-09T00:22:18.441Z,35.53
2023-04-09T00:24:45.076Z,32.50
2023-04-09T00:27:11.854Z,35.42
2023-04-09T00:29:38.451Z,34.47
2023-04-09T00:32:05.587Z,37.33
2023-04-09T00:34:32.322Z,33.15
2023-04-09T00:36:59.652Z,33.20
2023-04-09T00:39:26.290Z,34.35
2023-04-09T00:42:02.547Z,31.75
2023-04-09T00:44:29.307Z,32.55
2023-04-09T00:46:56.584Z,33.28
2023-04-09T00:49:25.106Z,31.10
2023-04-09T00:51:52.676Z,28.92
2023-04-09T00:54:19.558Z,19.65
2023-04-09T00:56:46.886Z,21.40
2023-04-09T00:59:13.820Z,24.23
2023-04-09T01:01:40.662Z,22.23
2023-04-09T01:04:07.929Z,22.73
2023-04-09T01:06:45.424Z,25.05
2023-04-09T01:09:43.619Z,24.95
2023-04-09T01:12:29.760Z,24.23
2023-04-09T01:15:06.352Z,25.08
2023-04-09T01:17:44.486Z,24.95
2023-04-09T01:20:23.043Z,23.27
2023-04-09T01:23:10.854Z,24.05
2023-04-09T01:25:58.942Z,23.08
2023-04-09T01:28:45.929Z,21.42
2023-04-09T01:31:18.573Z,22.40
2023-04-09T01:33:46.083Z,23.08
2023-04-09T01:36:14.355Z,22.58
2023-04-09T01:38:42.840Z,22.23
2023-04-09T01:41:12.391Z,24.00
2023-04-09T01:43:40.236Z,22.88
2023-04-09T01:46:07.649Z,21.75
2023-04-09T01:48:34.780Z,22.27
2023-04-09T01:51:01.660Z,23.27
2023-04-09T01:53:28.521Z,22.60
2023-04-09T01:55:56.785Z,22.38
2023-04-09T01:58:24.953Z,22.42
2023-04-09T02:00:56.940Z,22.08
2023-04-09T02:03:26.800Z,21.70
2023-04-09T02:06:09.702Z,21.08
2023-04-09T02:08:37.734Z,21.00
2023-04-09T02:11:06.760Z,21.65
2023-04-09T02:13:35.501Z,22.25
2023-04-09T02:16:03.596Z,22.33
2023-04-09T02:18:31.079Z,21.75
2023-04-09T02:20:58.752Z,20.23
2023-04-09T02:23:27.024Z,21.63
2023-04-09T02:25:54.243Z,22.27
2023-04-09T02:28:20.910Z,22.38
2023-04-09T02:30:47.745Z,23.30
2023-04-09T02:33:14.541Z,22.50
2023-04-09T02:35:41.141Z,22.73
2023-04-09T02:38:14.518Z,22.65
2023-04-09T02:40:41.448Z,20.77
2023-04-09T02:43:09.600Z,22.02
2023-04-09T02:45:36.475Z,22.15
2023-04-09T02:48:03.113Z,22.67
2023-04-09T02:50:29.884Z,22.83
2023-04-09T02:52:56.590Z,21.38
2023-04-09T02:55:26.436Z,21.13
2023-04-09T02:57:53.161Z,22.08
2023-04-09T03:00:19.923Z,23.90
2023-04-09T03:02:46.673Z,22.60
2023-04-09T03:05:13.431Z,22.05
2023-04-09T03:07:40.088Z,22.25
2023-04-09T03:10:07.026Z,23.88
2023-04-09T03:12:33.814Z,24.65
2023-04-09T03:15:00.446Z,22.90
2023-04-09T03:17:27.185Z,22.10
2023-04-09T03:19:54.123Z,23.92
2023-04-09T03:22:20.943Z,22.67
2023-04-09T03:24:47.503Z,23.20
2023-04-09T03:27:14.198Z,22.63
2023-04-09T03:29:40.980Z,23.20
2023-04-09T03:32:07.522Z,23.98
2023-04-09T03:34:34.091Z,22.42
2023-04-09T03:37:00.728Z,22.50
2023-04-09T03:39:30.780Z,23.40
2023-04-09T03:41:58.964Z,22.80
2023-04-09T03:44:25.674Z,21.52
2023-04-09T03:46:52.460Z,23.40
2023-04-09T03:49:19.217Z,22.90
2023-04-09T03:51:46.008Z,23.50
2023-04-09T03:54:12.646Z,24.42
2023-04-09T03:56:39.319Z,24.10
2023-04-09T03:59:06.587Z,24.92
2023-04-09T04:01:33.454Z,23.95
2023-04-09T04:04:00.541Z,23.45
2023-04-09T04:06:27.856Z,23.63
2023-04-09T04:08:54.541Z,22.70
2023-04-09T04:11:21.481Z,22.80
2023-04-09T04:13:48.227Z,24.63
2023-04-09T04:16:14.801Z,24.42
2023-04-09T04:18:41.442Z,24.73
2023-04-09T04:21:13.528Z,24.20
2023-04-09T04:23:40.300Z,24.48
2023-04-09T04:26:10.881Z,24.13
2023-04-09T04:31:11.585Z,24.30
2023-04-09T04:33:40.027Z,23.45
2023-04-09T04:36:12.439Z,24.23
2023-04-09T04:38:41.261Z,23.30
2023-04-09T04:41:08.361Z,23.88
2023-04-09T04:43:35.075Z,22.90
2023-04-09T04:46:01.853Z,23.52
2023-04-09T04:48:28.908Z,24.45
2023-04-09T04:50:59.850Z,25.83
2023-04-09T04:53:27.059Z,24.88
2023-04-09T04:55:54.333Z,24.25
2023-04-09T04:58:21.072Z,23.52
2023-04-09T05:00:47.834Z,23.77
2023-04-09T05:03:14.826Z,22.27
2023-04-09T05:05:41.864Z,25.33
2023-04-09T05:08:08.590Z,23.13
2023-04-09T05:10:35.571Z,23.25
2023-04-09T05:13:02.229Z,24.00
2023-04-09T05:15:29.108Z,23.80
2023-04-09T05:17:55.796Z,24.38
2023-04-09T05:20:22.487Z,25.65
2023-04-09T05:22:49.296Z,24.52
2023-04-09T05:25:16.433Z,25.58
2023-04-09T05:27:43.447Z,24.48
2023-04-09T05:30:10.552Z,23.77
2023-04-09T05:32:37.681Z,23.55
2023-04-09T05:35:05.232Z,22.38
2023-04-09T05:37:31.956Z,21.42
2023-04-09T05:39:58.690Z,22.73
2023-04-09T05:42:25.328Z,22.75
2023-04-09T05:44:52.047Z,23.50
2023-04-09T05:47:18.639Z,21.00
2023-04-09T05:49:45.341Z,22.95
2023-04-09T05:52:11.950Z,21.25
2023-04-09T05:54:38.605Z,21.38
2023-04-09T05:57:05.232Z,21.23
2023-04-09T05:59:31.975Z,22.02
2023-04-09T06:01:58.574Z,21.00
2023-04-09T06:04:25.346Z,21.10
2023-04-09T06:06:52.252Z,21.70
2023-04-09T06:09:18.888Z,22.05
2023-04-09T06:11:45.886Z,21.33
2023-04-09T06:14:16.497Z,20.52
2023-04-09T06:16:43.237Z,21.95
2023-04-09T06:19:10.057Z,22.40
2023-04-09T06:21:36.696Z,22.05
2023-04-09T06:24:03.342Z,21.13
2023-04-09T06:26:30.037Z,21.60
2023-04-09T06:28:56.735Z,21.70
2023-04-09T06:31:23.350Z,22.60
2023-04-09T06:33:50.122Z,21.58
2023-04-09T06:36:17.363Z,19.67
2023-04-09T06:38:43.956Z,20.63
2023-04-09T06:41:12.792Z,20.75
2023-04-09T06:43:39.531Z,18.60
2023-04-09T06:46:06.250Z,20.52
2023-04-09T06:48:32.976Z,18.88
2023-04-09T06:50:59.542Z,20.75
2023-04-09T06:53:26.230Z,19.02
2023-04-09T06:55:54.395Z,19.13
2023-04-09T06:58:22.208Z,19.42
2023-04-09T07:00:49.033Z,20.17
2023-04-09T07:03:15.848Z,20.02
2023-04-09T07:05:42.607Z,20.60
2023-04-09T07:08:09.296Z,20.63
2023-04-09T07:10:36.203Z,21.00
2023-04-09T07:13:03.263Z,21.70
2023-04-09T07:15:29.950Z,22.92
2023-04-09T07:17:57.691Z,22.77
2023-04-09T07:20:24.703Z,22.88
2023-04-09T07:22:51.340Z,23.20
2023-04-09T07:25:18.158Z,23.58
2023-04-09T07:27:44.849Z,23.20
2023-04-09T07:30:11.541Z,23.95
2023-04-09T07:32:38.802Z,24.42
2023-04-09T07:35:07.982Z,23.95
2023-04-09T07:37:34.571Z,24.65
2023-04-09T07:40:01.811Z,24.45
2023-04-09T07:42:28.525Z,24.60
2023-04-09T07:44:55.196Z,24.52
2023-04-09T07:47:23.376Z,24.52
2023-04-09T07:49:50.534Z,25.45
2023-04-09T07:52:17.325Z,25.05
2023-04-09T07:54:44.096Z,23.02
2023-04-09T07:57:10.959Z,24.85
2023-04-09T07:59:37.656Z,24.52
2023-04-09T08:02:04.565Z,25.90
2023-04-09T08:04:31.722Z,24.40
2023-04-09T08:06:58.672Z,24.80
2023-04-09T08:09:25.421Z,24.15
2023-04-09T08:11:52.175Z,24.17
2023-04-09T08:14:18.830Z,23.42
2023-04-09T08:16:47.597Z,22.33
2023-04-09T08:19:16.330Z,23.08
2023-04-09T08:21:43.587Z,22.77
2023-04-09T08:24:13.383Z,22.50
2023-04-09T08:26:41.411Z,23.57
2023-04-09T08:29:09.230Z,23.30
2023-04-09T08:31:39.267Z,22.92
2023-04-09T08:34:06.556Z,22.65
2023-04-09T08:36:35.321Z,21.42
2023-04-09T08:39:02.789Z,21.55
2023-04-09T08:41:29.833Z,23.10
2023-04-09T08:43:59.247Z,22.83
2023-04-09T08:46:27.235Z,23.90
2023-04-09T08:48:54.465Z,22.15
2023-04-09T08:51:23.924Z,22.83
2023-04-09T08:54:03.999Z,23.10
2023-04-09T08:56:31.856Z,21.52
2023-04-09T08:58:58.930Z,23.52
2023-04-09T09:01:28.958Z,23.42
2023-04-09T09:04:04.113Z,22.52
2023-04-09T09:06:38.788Z,22.88
2023-04-09T09:09:06.189Z,22.42
2023-04-09T09:11:34.399Z,20.58
2023-04-09T09:14:08.971Z,20.70
2023-04-09T09:16:40.284Z,20.42
2023-04-09T09:19:07.227Z,21.85
2023-04-09T09:21:34.871Z,20.88
2023-04-09T09:24:01.905Z,20.45
2023-04-09T09:26:30.560Z,21.63
2023-04-09T09:29:01.486Z,20.90
2023-04-09T09:31:28.330Z,22.35
2023-04-09T09:33:55.126Z,21.38
2023-04-09T09:36:35.695Z,21.95
2023-04-09T09:41:32.023Z,21.02
2023-04-09T09:43:58.881Z,19.83
2023-04-09T09:46:26.617Z,21.73
2023-04-09T09:48:53.806Z,21.48
2023-04-09T09:51:26.038Z,20.83
2023-04-09T09:53:56.623Z,21.17
2023-04-09T09:59:07.945Z,22.00
2023-04-09T10:01:37.702Z,20.92
2023-04-09T10:04:06.526Z,21.35
2023-04-09T10:06:38.805Z,23.40
2023-04-09T10:09:06.856Z,23.50
2023-04-09T10:11:36.954Z,21.80
2023-04-09T10:14:05.441Z,21.90
2023-04-09T10:16:33.397Z,20.63
2023-04-09T10:19:01.644Z,20.58
2023-04-09T10:21:39.525Z,20.70
2023-04-09T10:24:09.210Z,21.70
2023-04-09T10:26:40.826Z,20.77
2023-04-09T10:29:09.620Z,19.90
2023-04-09T10:32:05.157Z,21.70
2023-04-09T10:34:36.300Z,21.13
2023-04-09T10:37:03.040Z,20.83
2023-04-09T10:39:33.221Z,20.15
2023-04-09T10:42:13.571Z,21.50
2023-04-09T10:44:41.689Z,19.17
2023-04-09T10:47:10.091Z,18.05
2023-04-09T10:49:38.714Z,19.48
2023-04-09T10:52:12.058Z,19.02
2023-04-09T10:54:46.932Z,19.20
2023-04-09T10:57:15.689Z,20.52
2023-04-09T10:59:50.649Z,20.55
2023-04-09T11:03:09.785Z,19.63
2023-04-09T11:05:40.386Z,19.27
2023-04-09T11:10:37.933Z,18.52
2023-04-09T11:13:05.189Z,18.52
2023-04-09T11:15:34.745Z,17.85
2023-04-09T11:18:02.342Z,18.33
2023-04-09T11:20:31.164Z,17.83
2023-04-09T11:22:59.481Z,16.65
2023-04-09T11:25:27.870Z,16.73
2023-04-09T11:27:55.048Z,17.58
2023-04-09T11:30:21.804Z,18.10
2023-04-09T11:32:49.702Z,18.60
2023-04-09T11:35:21.474Z,18.02
2023-04-09T11:37:50.081Z,17.92
2023-04-09T11:40:18.681Z,17.20
2023-04-09T11:42:46.973Z,18.13
2023-04-09T11:45:15.951Z,17.13
2023-04-09T11:47:44.018Z,18.30
2023-04-09T11:50:12.450Z,17.65
2023-04-09T11:52:40.257Z,17.90
2023-04-09T11:55:08.416Z,17.13
2023-04-09T11:57:45.001Z,17.45
2023-04-09T12:00:17.453Z,17.35
2023-04-09T12:02:59.666Z,18.42
2023-04-09T12:05:29.938Z,17.20
2023-04-09T12:08:07.473Z,16.65
2023-04-09T12:10:36.923Z,16.75
2023-04-09T12:13:10.295Z,17.27
2023-04-09T12:15:39.026Z,16.30
2023-04-09T12:18:09.532Z,15.70
2023-04-09T12:23:05.178Z,15.77
2023-04-09T12:25:33.960Z,14.48
2023-04-09T12:28:00.660Z,15.70
2023-04-09T12:30:27.911Z,15.75
2023-04-09T12:32:55.377Z,15.77
2023-04-09T12:35:23.192Z,16.50
2023-04-09T12:37:50.936Z,16.10
2023-04-09T12:40:19.376Z,15.65
2023-04-09T12:42:46.677Z,16.02
2023-04-09T12:45:16.663Z,16.00
2023-04-09T12:47:44.068Z,16.20
2023-04-09T12:50:11.972Z,15.75
2023-04-09T12:52:38.793Z,15.98
2023-04-09T12:55:06.255Z,16.27
2023-04-09T12:57:33.334Z,16.60
2023-04-09T13:00:00.006Z,15.32
2023-04-09T13:02:26.890Z,14.73
2023-04-09T13:04:53.812Z,14.30
2023-04-09T13:07:21.051Z,14.55
2023-04-09T13:09:51.242Z,13.52
2023-04-09T13:12:18.395Z,13.68
2023-04-09T13:14:46.668Z,14.30
2023-04-09T13:17:13.629Z,14.82
2023-04-09T13:19:42.673Z,14.27
2023-04-09T13:22:09.637Z,13.73
2023-04-09T13:24:36.561Z,15.30
2023-04-09T13:27:06.165Z,14.15
2023-04-09T13:29:33.058Z,13.63
2023-04-09T13:32:01.804Z,13.77
2023-04-09T13:34:28.455Z,14.10
2023-04-09T13:36:55.540Z,13.52
2023-04-09T13:39:22.410Z,15.77
2023-04-09T13:41:49.169Z,14.80
2023-04-09T13:44:15.986Z,13.25
2023-04-09T13:46:42.765Z,14.15
2023-04-09T13:49:09.540Z,14.68
2023-04-09T13:51:36.269Z,13.57
2023-04-09T13:54:05.785Z,13.43
2023-04-09T13:56:32.837Z,14.75
2023-04-09T13:58:59.512Z,13.10
2023-04-09T14:01:28.228Z,13.55
2023-04-09T14:03:55.459Z,14.40
2023-04-09T14:06:22.292Z,13.27
2023-04-09T14:08:49.007Z,12.63
2023-04-09T14:11:16.755Z,12.90
2023-04-09T14:13:43.663Z,13.30
2023-04-09T14:16:10.674Z,13.23
2023-04-09T14:18:37.428Z,12.88
2023-04-09T14:21:04.249Z,13.27
2023-04-09T14:23:31.281Z,12.75
2023-04-09T14:25:58.081Z,12.80
2023-04-09T14:28:24.794Z,13.27
2023-04-09T14:30:51.456Z,12.80
2023-04-09T14:33:18.463Z,12.50
2023-04-09T14:35:45.467Z,13.10
2023-04-09T14:38:12.530Z,12.38
2023-04-09T14:40:39.175Z,12.43
2023-04-09T14:43:06.354Z,13.15
2023-04-09T14:45:33.050Z,13.50
2023-04-09T14:47:59.667Z,13.25
2023-04-09T14:50:26.537Z,12.25
2023-04-09T14:52:53.280Z,12.35
2023-04-09T14:55:19.965Z,12.73
2023-04-09T14:57:46.889Z,12.93
2023-04-09T15:00:13.887Z,12.40
2023-04-09T15:02:41.625Z,12.50
2023-04-09T15:05:09.037Z,12.95
2023-04-09T15:07:35.790Z,13.20
2023-04-09T15:10:02.512Z,13.20
2023-04-09T15:12:31.448Z,12.73
2023-04-09T15:14:58.410Z,13.82
2023-04-09T15:17:26.598Z,12.45
2023-04-09T15:19:54.585Z,13.52
2023-04-09T15:22:21.733Z,13.63
2023-04-09T15:24:49.353Z,12.82
2023-04-09T15:27:16.190Z,13.30
2023-04-09T15:29:43.436Z,14.05
2023-04-09T15:32:10.060Z,12.95
2023-04-09T15:34:36.728Z,14.23
2023-04-09T15:37:03.407Z,15.23
2023-04-09T15:39:30.086Z,14.07
2023-04-09T15:41:57.652Z,13.50
2023-04-09T15:44:25.086Z,13.15
2023-04-09T15:46:51.735Z,13.15
2023-04-09T15:49:19.718Z,14.05
2023-04-09T15:51:46.705Z,13.93
2023-04-09T15:54:14.316Z,13.75
2023-04-09T15:56:41.127Z,17.58
2023-04-09T15:59:08.464Z,35.90
2023-04-09T16:01:36.361Z,28.80
2023-04-09T16:04:04.454Z,26.58
2023-04-09T16:06:31.496Z,55.25
2023-04-09T16:08:58.251Z,15.85
2023-04-09T16:11:24.967Z,13.93
2023-04-09T16:13:52.431Z,12.63
2023-04-09T16:16:19.884Z,14.27
2023-04-09T16:18:46.934Z,12.65
2023-04-09T16:21:14.131Z,13.80
2023-04-09T16:23:41.024Z,12.43
2023-04-09T16:26:07.740Z,13.40
2023-04-09T16:28:34.330Z,12.23
2023-04-09T16:31:01.385Z,13.32
2023-04-09T16:33:28.101Z,12.75
2023-04-09T16:35:54.825Z,12.65
2023-04-09T16:38:23.640Z,11.75
2023-04-09T16:40:50.681Z,11.45
2023-04-09T16:43:17.313Z,12.10
2023-04-09T16:45:44.251Z,11.88
2023-04-09T16:48:12.568Z,11.23
2023-04-09T16:50:40.098Z,11.05
2023-04-09T16:53:06.922Z,11.90
2023-04-09T16:55:34.480Z,10.48
2023-04-09T16:58:01.142Z,10.80
2023-04-09T17:00:27.814Z,9.85
2023-04-09T17:02:56.068Z,10.25
2023-04-09T17:05:22.895Z,10.60
2023-04-09T17:07:49.533Z,10.55
2023-04-09T17:10:16.481Z,9.65
2023-04-09T17:12:43.656Z,10.40
2023-04-09T17:15:11.177Z,10.60
2023-04-09T17:17:38.203Z,9.88
2023-04-09T17:20:05.820Z,10.48
2023-04-09T17:22:32.547Z,10.27
2023-04-09T17:24:59.267Z,10.20
2023-04-09T17:27:26.075Z,10.35
2023-04-09T17:29:53.811Z,9.70
2023-04-09T17:32:20.701Z,10.15
2023-04-09T17:34:49.477Z,9.60
2023-04-09T17:37:16.344Z,10.10
2023-04-09T17:39:43.095Z,9.35
2023-04-09T17:42:11.863Z,9.82
2023-04-09T17:44:39.073Z,11.13
2023-04-09T17:47:07.500Z,10.25
2023-04-09T17:49:34.546Z,10.10
2023-04-09T17:52:01.372Z,9.93
2023-04-09T17:54:33.595Z,10.18
2023-04-09T17:57:01.326Z,10.65
2023-04-09T17:59:28.109Z,10.38
2023-04-09T18:01:55.287Z,11.65
2023-04-09T18:04:23.911Z,10.73
2023-04-09T18:06:51.263Z,10.27
2023-04-09T18:09:18.320Z,10.23
2023-04-09T18:11:46.327Z,10.32
2023-04-09T18:14:13.002Z,10.57
2023-04-09T18:16:40.304Z,10.10
2023-04-09T18:19:07.962Z,10.02
2023-04-09T18:21:37.669Z,10.15
2023-04-09T18:24:05.211Z,9.60
2023-04-09T18:26:33.862Z,9.75
2023-04-09T18:29:01.449Z,9.80
2023-04-09T18:31:28.589Z,10.00
2023-04-09T18:33:55.476Z,10.40
2023-04-09T18:36:22.324Z,10.32
2023-04-09T18:38:49.096Z,10.38
2023-04-09T18:41:26.147Z,9.85
2023-04-09T18:43:53.460Z,9.75
2023-04-09T18:46:20.149Z,10.13
2023-04-09T18:48:49.332Z,9.77
2023-04-09T18:51:17.231Z,10.20
2023-04-09T18:53:45.215Z,10.70
2023-04-09T18:56:12.070Z,11.05
2023-04-09T18:58:39.056Z,9.43
2023-04-09T19:01:12.131Z,10.27
2023-04-09T19:03:39.991Z,11.57
2023-04-09T19:06:14.549Z,10.43
2023-04-09T19:08:41.686Z,10.70
2023-04-09T19:11:08.361Z,10.98
2023-04-09T19:13:37.011Z,10.90
2023-04-09T19:16:04.470Z,10.55
2023-04-09T19:18:32.081Z,11.93
2023-04-09T19:20:58.981Z,11.25
2023-04-09T19:23:26.570Z,11.18
2023-04-09T19:25:55.342Z,12.30
2023-04-09T19:28:22.732Z,12.13
2023-04-09T19:30:53.643Z,11.65
2023-04-09T19:33:24.281Z,11.80
2023-04-09T19:35:52.159Z,11.45
2023-04-09T19:38:19.380Z,11.27
2023-04-09T19:40:46.825Z,12.50
2023-04-09T19:43:13.685Z,11.93
2023-04-09T19:45:40.987Z,12.68
2023-04-09T19:48:07.974Z,12.15
2023-04-09T19:50:37.951Z,11.45
2023-04-09T19:53:06.148Z,12.50
2023-04-09T19:55:33.634Z,11.90
2023-04-09T19:58:00.432Z,12.70
2023-04-09T20:00:28.286Z,12.00
2023-04-09T20:02:55.910Z,11.95
2023-04-09T20:05:22.984Z,12.95
2023-04-09T20:07:50.508Z,12.57
2023-04-09T20:10:17.456Z,12.20
2023-04-09T20:12:47.792Z,11.27
2023-04-09T20:15:15.469Z,12.65
2023-04-09T20:17:42.718Z,12.85
2023-04-09T20:20:09.704Z,12.48
2023-04-09T20:22:36.712Z,13.50
2023-04-09T20:25:03.563Z,14.05
2023-04-09T20:27:30.228Z,12.70
2023-04-09T20:29:56.824Z,13.98
2023-04-09T20:32:23.727Z,12.88
2023-04-09T20:34:50.348Z,14.05
2023-04-09T20:37:17.014Z,13.48
2023-04-09T20:39:43.652Z,14.45
2023-04-09T20:42:10.291Z,12.82
2023-04-09T20:44:38.173Z,13.88
2023-04-09T20:47:05.058Z,14.27
2023-04-09T20:49:31.656Z,13.40
2023-04-09T20:51:58.360Z,13.77
2023-04-09T20:54:25.895Z,13.27
2023-04-09T20:56:52.487Z,15.07
2023-04-09T20:59:19.481Z,14.80
2023-04-09T21:01:46.449Z,14.20
2023-04-09T21:04:13.270Z,14.55
2023-04-09T21:06:40.998Z,14.45
2023-04-09T21:09:07.776Z,14.95
2023-04-09T21:11:34.451Z,14.73
2023-04-09T21:14:01.359Z,14.57
2023-04-09T21:16:29.946Z,15.25
2023-04-09T21:18:56.855Z,14.02
2023-04-09T21:21:23.665Z,16.25
2023-04-09T21:23:50.604Z,18.25
2023-04-09T21:26:17.257Z,17.75
2023-04-09T21:28:45.943Z,20.27
2023-04-09T21:31:12.611Z,20.10
2023-04-09T21:33:39.366Z,20.70
2023-04-09T21:36:07.922Z,22.15
2023-04-09T21:38:34.840Z,22.23
2023-04-09T21:41:01.855Z,21.98
2023-04-09T21:43:29.312Z,22.45
2023-04-09T21:45:59.602Z,22.67
2023-04-09T21:48:30.690Z,21.45
2023-04-09T21:50:58.319Z,22.95
2023-04-09T21:53:25.095Z,22.33
2023-04-09T21:55:51.701Z,21.83
2023-04-09T21:58:18.422Z,22.27
2023-04-09T22:00:44.974Z,22.35
2023-04-09T22:03:12.620Z,23.48
2023-04-09T22:05:39.389Z,22.30
2023-04-09T22:08:06.207Z,22.77
2023-04-09T22:10:32.957Z,21.92
2023-04-09T22:12:59.591Z,22.83
2023-04-09T22:15:26.349Z,23.65
2023-04-09T22:17:53.370Z,24.20
2023-04-09T22:20:20.215Z,24.52
2023-04-09T22:22:48.285Z,25.58
2023-04-09T22:25:15.018Z,25.40
2023-04-09T22:27:43.090Z,24.92
2023-04-09T22:30:09.776Z,25.27
2023-04-09T22:32:36.491Z,25.33
2023-04-09T22:35:03.146Z,25.67
2023-04-09T22:37:29.721Z,23.45
2023-04-09T22:39:56.468Z,25.60
2023-04-09T22:42:24.428Z,26.00
2023-04-09T22:44:51.317Z,24.90
2023-04-09T22:47:17.912Z,25.20
2023-04-09T22:49:44.513Z,24.83
2023-04-09T22:52:11.409Z,24.20
2023-04-09T22:54:38.216Z,24.90
2023-04-09T22:57:04.862Z,25.08
2023-04-09T22:59:40.111Z,24.13
2023-04-09T23:02:07.302Z,24.80
2023-04-09T23:04:34.986Z,25.00
2023-04-09T23:07:02.445Z,25.15
2023-04-09T23:09:30.981Z,24.35
2023-04-09T23:11:57.993Z,24.15
2023-04-09T23:14:24.735Z,24.50
2023-04-09T23:16:51.345Z,24.08
2023-04-09T23:19:18.092Z,24.42
2023-04-09T23:21:44.695Z,23.45
2023-04-09T23:24:11.273Z,25.42
2023-04-09T23:26:37.971Z,24.63
2023-04-09T23:29:04.534Z,25.73
2023-04-09T23:31:31.160Z,23.92
2023-04-09T23:33:57.896Z,25.50
2023-04-09T23:36:24.593Z,24.02
2023-04-09T23:38:51.441Z,25.27
2023-04-09T23:41:18.086Z,25.50
2023-04-09T23:43:44.755Z,25.75
2023-04-09T23:46:11.462Z,26.20
2023-04-09T23:48:38.084Z,25.92
2023-04-09T23:51:04.948Z,26.42
2023-04-09T23:53:31.548Z,26.88
2023-04-09T23:55:58.612Z,26.80
2023-04-09T23:58:25.440Z,26.35
